Time;durP1;ratioP1;P1;durP2;ratioP2;P2;SDS_P1;SDS_P2;PMS_P1;PMS_P2;Temp;Humidity;BMP_temperature;BMP_pressure;BME280_temperature;BME280_humidity;BME280_pressure;Samples;Min_cycle;Max_cycle;Signal;HPM_P1;HPM_P2
2021/11/05 00:00:41;;;;;;;5.93;5.30;;;7.10;97.80;;;;;;5019895;28;20315;-77
2021/11/05 00:03:12;;;;;;;5.88;4.70;;;7.10;98.60;;;;;;5020110;28;20591;-77
2021/11/05 00:05:39;;;;;;;6.97;5.20;;;7.10;99.40;;;;;;5021976;28;20382;-77
2021/11/05 00:08:09;;;;;;;5.90;5.30;;;7.10;99.90;;;;;;5025000;28;20260;-79
2021/11/05 00:10:38;;;;;;;5.30;4.80;;;7.10;99.90;;;;;;5026262;28;20228;-79
2021/11/05 00:13:07;;;;;;;5.50;5.00;;;7.10;99.90;;;;;;5025804;28;20210;-79
2021/11/05 00:15:34;;;;;;;6.75;5.63;;;7.10;99.90;;;;;;5018306;28;20582;-78
2021/11/05 00:18:01;;;;;;;6.15;5.43;;;7.00;99.90;;;;;;5018311;28;20206;-77
2021/11/05 00:20:29;;;;;;;5.60;5.03;;;7.00;99.90;;;;;;5020015;28;20296;-78
2021/11/05 00:22:57;;;;;;;7.15;5.50;;;7.00;99.90;;;;;;5033589;28;20272;-78
2021/11/05 00:25:24;;;;;;;6.50;5.65;;;7.00;99.90;;;;;;5026844;28;20218;-79
2021/11/05 00:27:52;;;;;;;5.78;5.20;;;7.00;99.90;;;;;;5018551;28;20591;-77
2021/11/05 00:30:19;;;;;;;6.00;5.40;;;7.00;99.90;;;;;;5018158;28;20229;-78
2021/11/05 00:32:46;;;;;;;5.35;4.85;;;7.00;99.90;;;;;;5017758;28;20212;-79
2021/11/05 00:35:15;;;;;;;7.20;5.63;;;6.90;99.90;;;;;;5018354;28;20235;-78
2021/11/05 00:37:45;;;;;;;7.30;5.95;;;6.90;99.90;;;;;;5022510;28;20269;-79
2021/11/05 00:40:15;;;;;;;6.70;6.10;;;7.00;99.90;;;;;;5019967;28;20229;-80
2021/11/05 00:42:44;;;;;;;7.05;5.85;;;7.00;99.90;;;;;;5023070;28;20209;-80
2021/11/05 00:45:12;;;;;;;6.63;5.95;;;7.00;99.90;;;;;;5021692;28;20208;-76
2021/11/05 00:47:44;;;;;;;5.03;4.60;;;6.90;99.90;;;;;;5033067;28;20224;-79
2021/11/05 00:50:12;;;;;;;6.40;5.80;;;7.00;99.90;;;;;;5036158;28;20216;-77
2021/11/05 00:52:39;;;;;;;7.10;6.40;;;6.90;99.90;;;;;;5014498;28;20229;-78
2021/11/05 00:55:08;;;;;;;9.20;6.72;;;7.00;99.90;;;;;;5010974;28;20209;-78
2021/11/05 00:57:51;;;;;;;9.38;6.45;;;6.90;99.90;;;;;;5014572;28;20208;-77
2021/11/05 01:00:19;;;;;;;6.72;5.85;;;6.90;99.90;;;;;;5014364;28;20234;-79
2021/11/05 01:03:02;;;;;;;6.97;6.07;;;6.90;99.90;;;;;;5010497;28;20210;-79
2021/11/05 01:05:29;;;;;;;6.10;5.60;;;6.90;99.90;;;;;;5010409;28;20194;-79
2021/11/05 01:07:56;;;;;;;8.52;6.50;;;6.90;99.90;;;;;;5005527;28;20293;-79
2021/11/05 01:10:24;;;;;;;8.32;6.30;;;6.90;99.90;;;;;;5000556;28;20233;-77
2021/11/05 01:12:51;;;;;;;7.22;6.30;;;6.90;99.90;;;;;;5000961;28;20301;-78
2021/11/05 01:15:21;;;;;;;9.82;6.63;;;6.90;99.90;;;;;;5007570;28;20205;-78
2021/11/05 01:17:49;;;;;;;8.63;6.70;;;7.00;99.90;;;;;;5008322;28;20214;-79
2021/11/05 01:20:22;;;;;;;8.40;5.95;;;7.00;99.90;;;;;;5010974;28;20236;-79
2021/11/05 01:22:49;;;;;;;6.07;5.47;;;7.00;99.90;;;;;;5011634;28;20294;-79
2021/11/05 01:25:17;;;;;;;8.85;5.72;;;7.00;99.90;;;;;;5012122;28;20614;-77
2021/11/05 01:27:49;;;;;;;8.07;5.25;;;7.00;99.90;;;;;;5014127;28;20231;-79
2021/11/05 01:30:18;;;;;;;6.15;5.50;;;7.00;99.90;;;;;;5015596;28;20240;-79
2021/11/05 01:33:06;;;;;;;5.30;4.80;;;6.90;99.90;;;;;;5016947;28;20207;-77
2021/11/05 01:35:35;;;;;;;6.90;5.05;;;6.90;99.90;;;;;;5016418;28;20215;-77
2021/11/05 01:38:03;;;;;;;6.88;5.60;;;6.90;99.90;;;;;;5013516;28;20263;-79
2021/11/05 01:40:31;;;;;;;5.68;5.10;;;6.90;99.90;;;;;;5012740;28;20244;-78
2021/11/05 01:43:02;;;;;;;5.53;5.03;;;6.90;99.90;;;;;;5013965;28;20575;-79
2021/11/05 01:45:34;;;;;;;5.20;4.55;;;6.90;99.90;;;;;;5017217;28;20205;-77
2021/11/05 01:48:03;;;;;;;5.10;4.60;;;6.90;99.90;;;;;;5017902;28;20288;-75
2021/11/05 01:53:47;;;;;;;6.75;4.47;;;6.90;99.90;;;;;;4997716;28;20197;-77
2021/11/05 01:56:14;;;;;;;5.18;4.60;;;6.90;99.90;;;;;;4997878;28;20255;-77
2021/11/05 01:58:43;;;;;;;5.50;4.80;;;7.00;99.90;;;;;;4993295;28;20265;-76
2021/11/05 02:01:10;;;;;;;5.07;4.35;;;7.00;99.90;;;;;;4990847;28;20613;-78
2021/11/05 02:03:37;;;;;;;5.70;4.47;;;7.00;99.90;;;;;;4989482;28;20212;-78
2021/11/05 02:06:05;;;;;;;4.72;4.28;;;7.00;99.90;;;;;;4990174;28;20206;-78
2021/11/05 02:08:44;;;;;;;4.68;4.25;;;7.00;99.90;;;;;;4988783;28;20222;-79
2021/11/05 02:19:42;;;;;;;5.97;4.90;;;7.00;99.90;;;;;;6019888;23;21852;-76
2021/11/05 02:22:11;;;;;;;6.88;4.30;;;7.00;99.90;;;;;;5048338;28;20200;-77
2021/11/05 02:24:39;;;;;;;4.97;4.47;;;7.00;99.90;;;;;;5043977;28;20211;-77
2021/11/05 02:27:06;;;;;;;5.30;4.80;;;7.00;99.90;;;;;;5044289;28;20211;-77
2021/11/05 02:29:34;;;;;;;5.00;4.50;;;7.00;99.90;;;;;;5045236;28;20277;-78
2021/11/05 02:32:01;;;;;;;5.15;4.25;;;7.00;99.90;;;;;;5041613;28;20719;-78
2021/11/05 02:34:29;;;;;;;4.97;4.47;;;7.00;99.90;;;;;;5035530;28;20208;-79
2021/11/05 02:36:56;;;;;;;5.07;4.10;;;7.00;99.90;;;;;;5036891;28;20216;-80
2021/11/05 02:39:24;;;;;;;5.63;4.70;;;7.00;99.90;;;;;;5047653;28;20221;-79
2021/11/05 02:41:52;;;;;;;5.28;4.75;;;7.00;99.90;;;;;;5051022;28;20411;-79
2021/11/05 02:44:20;;;;;;;4.82;4.18;;;7.00;99.90;;;;;;5043369;28;20298;-79
2021/11/05 02:46:47;;;;;;;4.78;4.18;;;6.90;99.90;;;;;;5035148;28;20210;-78
2021/11/05 02:49:15;;;;;;;6.35;4.15;;;7.00;99.90;;;;;;5036096;28;20605;-80
2021/11/05 02:51:43;;;;;;;4.70;4.20;;;7.00;99.90;;;;;;5035312;28;20242;-80
2021/11/05 02:54:10;;;;;;;4.55;4.15;;;7.00;99.90;;;;;;5035127;28;20314;-78
2021/11/05 02:56:39;;;;;;;5.05;4.00;;;7.00;99.90;;;;;;5034833;28;20306;-80
2021/11/05 02:59:06;;;;;;;6.72;4.90;;;7.00;99.90;;;;;;5034281;28;20330;-79
2021/11/05 03:01:34;;;;;;;5.18;4.68;;;7.00;99.90;;;;;;5034276;28;20211;-78
2021/11/05 03:04:02;;;;;;;4.75;4.32;;;7.00;99.90;;;;;;5034269;28;20293;-79
2021/11/05 03:06:34;;;;;;;4.68;4.25;;;6.90;99.90;;;;;;5034751;28;20294;-79
2021/11/05 03:09:07;;;;;;;4.72;4.22;;;6.90;99.90;;;;;;5033965;28;20318;-78
2021/11/05 03:11:34;;;;;;;5.03;4.57;;;6.90;99.90;;;;;;5034264;28;20250;-78
2021/11/05 03:14:03;;;;;;;6.65;4.75;;;7.00;99.90;;;;;;5035584;28;20213;-78
2021/11/05 03:16:30;;;;;;;5.05;4.55;;;6.90;99.90;;;;;;5038682;28;20235;-78
2021/11/05 03:18:57;;;;;;;5.63;5.00;;;6.90;99.90;;;;;;5037644;28;20224;-77
2021/11/05 03:21:23;;;;;;;6.43;5.07;;;6.90;99.90;;;;;;5038271;28;20306;-78
2021/11/05 03:23:50;;;;;;;5.20;4.70;;;6.90;99.90;;;;;;5038099;28;20291;-78
2021/11/05 03:26:17;;;;;;;5.25;4.75;;;7.00;99.90;;;;;;5046928;28;20241;-77
2021/11/05 03:28:44;;;;;;;6.15;5.28;;;7.00;99.90;;;;;;5040783;28;20232;-78
2021/11/05 03:31:12;;;;;;;6.43;5.53;;;7.00;99.90;;;;;;5039408;28;20208;-77
2021/11/05 03:33:39;;;;;;;4.80;4.32;;;7.00;99.90;;;;;;5038782;28;20570;-76
2021/11/05 03:36:11;;;;;;;5.57;4.90;;;7.00;99.90;;;;;;5049485;28;20236;-77
2021/11/05 03:38:46;;;;;;;5.15;4.65;;;7.00;99.90;;;;;;5059805;28;20226;-76
2021/11/05 03:41:15;;;;;;;6.18;5.57;;;7.00;99.90;;;;;;5060219;28;20191;-76
2021/11/05 03:43:43;;;;;;;7.05;5.65;;;7.00;99.90;;;;;;5060439;28;20208;-76
2021/11/05 03:46:12;;;;;;;6.90;5.13;;;7.00;99.90;;;;;;5060251;28;20225;-77
2021/11/05 03:48:39;;;;;;;7.25;6.00;;;7.00;99.90;;;;;;5056519;28;20597;-78
2021/11/05 03:51:06;;;;;;;6.47;5.88;;;7.00;99.90;;;;;;5055126;28;20207;-78
2021/11/05 03:53:34;;;;;;;6.55;5.35;;;7.10;99.90;;;;;;5054579;28;20220;-79
2021/11/05 03:56:01;;;;;;;6.75;5.72;;;7.10;99.90;;;;;;5053463;28;20247;-79
2021/11/05 03:58:28;;;;;;;6.40;5.75;;;7.00;99.90;;;;;;5049911;28;20207;-78
2021/11/05 04:00:55;;;;;;;6.70;6.00;;;7.10;99.90;;;;;;5043730;28;20239;-78
2021/11/05 04:03:23;;;;;;;6.22;5.63;;;7.10;99.90;;;;;;5048863;28;20279;-78
2021/11/05 04:05:52;;;;;;;7.30;6.60;;;7.10;99.90;;;;;;5053397;28;20203;-77
2021/11/05 04:08:23;;;;;;;6.90;5.85;;;7.10;99.90;;;;;;5052348;28;20208;-78
2021/11/05 04:10:50;;;;;;;6.25;5.65;;;7.10;99.90;;;;;;5056637;28;20202;-77
2021/11/05 04:13:17;;;;;;;6.10;5.53;;;7.10;99.90;;;;;;5055820;28;20225;-77
2021/11/05 04:15:44;;;;;;;7.65;4.88;;;7.20;99.90;;;;;;5054516;28;20209;-77
2021/11/05 04:18:10;;;;;;;6.30;5.30;;;7.20;99.90;;;;;;5047696;28;20271;-77
2021/11/05 04:20:40;;;;;;;6.97;5.53;;;7.20;99.90;;;;;;5048828;28;20240;-77
2021/11/05 04:23:07;;;;;;;6.63;5.90;;;7.20;99.90;;;;;;5046772;28;20208;-78
2021/11/05 04:25:35;;;;;;;6.60;6.00;;;7.20;99.90;;;;;;5042176;28;20297;-78
2021/11/05 04:28:02;;;;;;;6.47;5.78;;;7.20;99.90;;;;;;5039489;28;20297;-78
2021/11/05 04:47:17;;;;;;;6.50;5.90;;;7.20;99.90;;;;;;4986127;28;20200;-79
2021/11/05 04:50:07;;;;;;;6.10;5.45;;;7.20;99.90;;;;;;5356164;22;20203;-78
2021/11/05 04:52:35;;;;;;;6.47;5.72;;;7.20;99.90;;;;;;5029613;28;20226;-80
2021/11/05 04:55:01;;;;;;;6.30;5.53;;;7.20;99.90;;;;;;5034067;28;20265;-80
2021/11/05 04:57:30;;;;;;;8.63;7.25;;;7.20;99.90;;;;;;5034622;28;20230;-79
2021/11/05 04:59:57;;;;;;;7.95;6.05;;;7.20;99.90;;;;;;5034334;28;20289;-79
2021/11/05 05:02:23;;;;;;;8.00;7.13;;;7.30;99.90;;;;;;5035519;28;20198;-79
2021/11/05 05:04:50;;;;;;;7.43;6.57;;;7.20;99.90;;;;;;5057384;23;20919;-78
2021/11/05 05:07:18;;;;;;;7.68;6.25;;;7.20;99.90;;;;;;5037034;28;20206;-77
2021/11/05 05:09:45;;;;;;;8.98;6.65;;;7.20;99.90;;;;;;5040919;28;20227;-77
2021/11/05 05:12:11;;;;;;;7.00;6.30;;;7.20;99.90;;;;;;5045184;28;20241;-76
2021/11/05 05:14:40;;;;;;;6.78;6.13;;;7.20;99.90;;;;;;5046116;28;20609;-77
2021/11/05 05:17:07;;;;;;;7.20;6.50;;;7.30;99.90;;;;;;5046826;28;20229;-77
2021/11/05 05:19:35;;;;;;;8.07;6.53;;;7.20;99.90;;;;;;5045239;28;20272;-77
2021/11/05 05:22:02;;;;;;;7.45;6.60;;;7.20;99.90;;;;;;5044474;28;20196;-77
2021/11/05 05:24:29;;;;;;;8.98;7.40;;;7.20;99.90;;;;;;5042266;28;20596;-77
2021/11/05 05:26:56;;;;;;;7.15;6.32;;;7.20;99.90;;;;;;5038798;28;20211;-78
2021/11/05 05:29:23;;;;;;;8.98;7.40;;;7.30;99.90;;;;;;5044663;28;20230;-77
2021/11/05 05:31:51;;;;;;;7.68;6.88;;;7.30;99.90;;;;;;5036781;28;20211;-78
2021/11/05 05:34:18;;;;;;;8.95;7.20;;;7.30;99.90;;;;;;5036328;28;20259;-77
2021/11/05 05:36:45;;;;;;;7.57;6.80;;;7.30;99.90;;;;;;5038431;28;20247;-77
2021/11/05 05:39:12;;;;;;;7.93;7.05;;;7.30;99.90;;;;;;5035655;28;20216;-77
2021/11/05 05:41:40;;;;;;;9.05;7.25;;;7.20;99.90;;;;;;5035604;28;20209;-76
2021/11/05 05:44:06;;;;;;;8.68;6.50;;;7.30;99.90;;;;;;5034977;28;20672;-77
2021/11/05 05:46:33;;;;;;;8.90;7.68;;;7.30;99.90;;;;;;5033950;28;20753;-76
2021/11/05 05:49:01;;;;;;;9.13;7.40;;;7.30;99.90;;;;;;5032978;28;20686;-77
2021/11/05 05:51:32;;;;;;;8.63;7.45;;;7.30;99.90;;;;;;5033372;28;20636;-77
2021/11/05 05:53:59;;;;;;;11.02;7.97;;;7.30;99.90;;;;;;5033434;28;20709;-76
2021/11/05 05:56:26;;;;;;;10.57;9.20;;;7.30;99.90;;;;;;5032840;28;20211;-77
2021/11/05 05:58:53;;;;;;;10.30;7.95;;;7.30;99.90;;;;;;5032928;28;20291;-76
2021/11/05 06:01:20;;;;;;;9.95;8.40;;;7.30;99.90;;;;;;5033353;28;20220;-77
2021/11/05 06:03:47;;;;;;;11.07;8.02;;;7.20;99.90;;;;;;5032618;28;20249;-75
2021/11/05 06:06:15;;;;;;;10.45;7.47;;;7.20;99.90;;;;;;5032797;28;20216;-76
2021/11/05 06:08:42;;;;;;;10.30;9.13;;;7.20;99.90;;;;;;5033212;28;20213;-77
2021/11/05 06:11:09;;;;;;;8.88;7.80;;;7.20;99.90;;;;;;5032849;28;20683;-77
2021/11/05 06:13:37;;;;;;;11.45;9.40;;;7.20;99.90;;;;;;5035775;28;20238;-79
2021/11/05 06:16:06;;;;;;;11.35;8.98;;;7.30;99.90;;;;;;5036900;28;20209;-76
2021/11/05 06:18:33;;;;;;;10.77;8.48;;;7.30;99.90;;;;;;5034607;28;20567;-77
2021/11/05 06:21:00;;;;;;;10.73;8.60;;;7.20;99.90;;;;;;5033274;28;20766;-76
2021/11/05 06:23:28;;;;;;;9.63;8.27;;;7.20;99.90;;;;;;5033014;28;20591;-75
2021/11/05 06:25:55;;;;;;;11.85;9.23;;;7.20;99.90;;;;;;5032968;28;20208;-76
2021/11/05 06:28:22;;;;;;;11.18;8.77;;;7.10;99.90;;;;;;5033972;28;20541;-76
2021/11/05 06:30:49;;;;;;;11.60;9.07;;;7.10;99.90;;;;;;5033001;28;20237;-77
2021/11/05 06:33:16;;;;;;;13.43;9.95;;;7.20;99.90;;;;;;5035931;28;20227;-78
2021/11/05 06:35:43;;;;;;;10.40;9.00;;;7.30;99.90;;;;;;5033114;28;20224;-76
2021/11/05 06:38:10;;;;;;;15.77;9.23;;;7.30;99.90;;;;;;5032902;28;20237;-76
2021/11/05 06:40:38;;;;;;;10.15;9.05;;;7.30;99.90;;;;;;5032593;28;20293;-79
2021/11/05 06:43:05;;;;;;;10.75;8.73;;;7.30;99.90;;;;;;5032574;28;20206;-77
2021/11/05 06:45:32;;;;;;;10.90;9.65;;;7.30;99.90;;;;;;5034466;28;20297;-77
2021/11/05 06:47:59;;;;;;;10.95;8.82;;;7.30;99.90;;;;;;5033041;28;20214;-77
2021/11/05 06:50:26;;;;;;;11.23;8.98;;;7.30;99.90;;;;;;5035818;28;20240;-77
2021/11/05 06:52:53;;;;;;;11.75;9.52;;;7.30;99.90;;;;;;5036977;28;20213;-76
2021/11/05 06:55:20;;;;;;;9.48;8.45;;;7.30;99.90;;;;;;5039431;28;20210;-76
2021/11/05 06:57:48;;;;;;;10.65;8.27;;;7.30;99.90;;;;;;5041110;28;20276;-76
2021/11/05 07:00:15;;;;;;;12.85;9.35;;;7.30;99.90;;;;;;5036508;28;20711;-77
2021/11/05 07:02:42;;;;;;;10.73;8.45;;;7.40;99.90;;;;;;5036828;28;20267;-77
2021/11/05 07:05:10;;;;;;;11.13;8.75;;;7.40;99.90;;;;;;5036632;28;20233;-77
2021/11/05 07:07:37;;;;;;;12.88;10.57;;;7.40;99.90;;;;;;5044583;28;20218;-76
2021/11/05 07:10:05;;;;;;;10.00;8.80;;;7.50;99.90;;;;;;5040836;28;20249;-77
2021/11/05 07:12:32;;;;;;;11.77;9.60;;;7.50;99.90;;;;;;5037649;28;20296;-76
2021/11/05 07:15:02;;;;;;;8.68;7.80;;;7.50;99.90;;;;;;5037467;28;20249;-76
2021/11/05 07:17:29;;;;;;;9.95;8.75;;;7.50;99.90;;;;;;5037042;28;20623;-77
2021/11/05 07:19:56;;;;;;;11.98;8.90;;;7.50;99.90;;;;;;5036320;28;20652;-77
2021/11/05 07:22:24;;;;;;;9.68;8.55;;;7.50;99.90;;;;;;5036147;28;20211;-76
2021/11/05 07:24:52;;;;;;;10.10;9.10;;;7.60;99.90;;;;;;5036901;28;20662;-77
2021/11/05 07:27:19;;;;;;;11.95;8.85;;;7.60;99.90;;;;;;5038048;28;20284;-76
2021/11/05 07:29:46;;;;;;;15.18;8.57;;;7.60;99.90;;;;;;5041773;28;20233;-78
2021/11/05 07:32:15;;;;;;;9.80;8.50;;;7.70;99.90;;;;;;5043087;28;20241;-76
2021/11/05 07:34:42;;;;;;;10.60;8.38;;;7.70;99.90;;;;;;5046541;28;20288;-77
2021/11/05 07:37:14;;;;;;;9.77;8.15;;;7.80;99.90;;;;;;5041368;28;20247;-76
2021/11/05 07:39:42;;;;;;;10.27;7.88;;;7.80;99.90;;;;;;5037653;28;20220;-76
2021/11/05 07:42:09;;;;;;;10.02;7.57;;;7.80;99.90;;;;;;5039734;28;20277;-76
2021/11/05 07:44:36;;;;;;;8.70;7.75;;;7.90;99.90;;;;;;5038842;28;20230;-77
2021/11/05 07:47:04;;;;;;;9.27;7.75;;;7.90;99.90;;;;;;5040336;28;20209;-77
2021/11/05 07:49:33;;;;;;;11.00;8.18;;;7.90;99.90;;;;;;5044814;28;20324;-77
2021/11/05 07:52:00;;;;;;;9.90;7.20;;;8.00;99.90;;;;;;5047792;28;20222;-76
2021/11/05 07:54:27;;;;;;;13.25;8.07;;;8.00;99.90;;;;;;5045919;28;20242;-77
2021/11/05 07:56:54;;;;;;;8.20;7.25;;;8.00;99.90;;;;;;5047079;28;20298;-76
2021/11/05 07:59:21;;;;;;;13.68;7.78;;;8.00;99.90;;;;;;5043056;28;20225;-76
2021/11/05 08:01:48;;;;;;;13.48;7.80;;;8.00;99.90;;;;;;5045917;28;20670;-76
2021/11/05 08:04:15;;;;;;;11.60;8.25;;;8.00;99.90;;;;;;5046856;28;20234;-75
2021/11/05 08:06:43;;;;;;;8.80;7.75;;;8.00;99.90;;;;;;5042272;28;20210;-77
2021/11/05 08:09:10;;;;;;;9.77;7.90;;;8.10;99.90;;;;;;5038552;28;20211;-77
2021/11/05 08:11:37;;;;;;;11.88;7.65;;;8.20;99.90;;;;;;5037234;28;20280;-75
2021/11/05 08:14:04;;;;;;;10.27;7.65;;;8.30;99.90;;;;;;5036857;28;20266;-77
2021/11/05 08:16:31;;;;;;;10.18;7.60;;;8.40;99.90;;;;;;5036526;28;20238;-76
2021/11/05 08:18:58;;;;;;;9.30;7.45;;;8.40;99.90;;;;;;5049633;28;20238;-76
2021/11/05 08:21:25;;;;;;;8.35;7.55;;;8.40;99.90;;;;;;5054997;28;20211;-76
2021/11/05 08:23:54;;;;;;;8.75;7.50;;;8.50;99.90;;;;;;5052517;28;20257;-76
2021/11/05 08:26:20;;;;;;;9.30;7.78;;;8.60;99.90;;;;;;5041466;28;20241;-78
2021/11/05 08:28:47;;;;;;;9.57;7.97;;;8.70;99.90;;;;;;5042500;28;20305;-76
2021/11/05 08:31:16;;;;;;;7.35;6.22;;;8.80;99.90;;;;;;5041887;28;20261;-77
2021/11/05 08:33:44;;;;;;;8.80;7.00;;;9.00;98.90;;;;;;5038630;28;20700;-77
2021/11/05 08:36:13;;;;;;;7.85;6.70;;;9.00;97.40;;;;;;5040858;28;20231;-76
2021/11/05 08:38:41;;;;;;;11.85;7.25;;;9.10;96.80;;;;;;5038819;28;20270;-77
2021/11/05 08:41:15;;;;;;;9.00;7.93;;;9.20;95.70;;;;;;5039713;28;20211;-77
2021/11/05 08:43:42;;;;;;;7.78;6.65;;;9.20;95.00;;;;;;5039242;28;20226;-77
2021/11/05 08:46:09;;;;;;;9.52;6.80;;;9.20;94.70;;;;;;5040335;28;20708;-77
2021/11/05 08:48:36;;;;;;;7.00;6.30;;;9.30;93.90;;;;;;5042474;28;20354;-77
2021/11/05 08:51:10;;;;;;;6.57;5.88;;;9.40;93.30;;;;;;5046681;28;20227;-77
2021/11/05 08:53:37;;;;;;;8.45;7.00;;;9.40;93.00;;;;;;5043186;28;20234;-77
2021/11/05 08:56:04;;;;;;;6.72;6.13;;;9.40;92.50;;;;;;5042241;28;20210;-76
2021/11/05 08:58:33;;;;;;;7.50;6.80;;;9.40;92.70;;;;;;5043983;28;20234;-77
2021/11/05 09:01:00;;;;;;;9.43;7.25;;;9.40;92.70;;;;;;5051223;28;20246;-76
2021/11/05 09:03:27;;;;;;;7.90;7.10;;;9.50;92.90;;;;;;5050217;28;20227;-78
2021/11/05 09:05:54;;;;;;;6.93;6.28;;;9.70;92.00;;;;;;5047605;28;20219;-78
2021/11/05 09:08:21;;;;;;;8.13;7.00;;;9.70;91.40;;;;;;5047713;28;20239;-76
2021/11/05 09:10:48;;;;;;;8.02;6.35;;;9.70;91.10;;;;;;5046047;28;20245;-76
2021/11/05 09:13:16;;;;;;;7.95;6.65;;;9.70;90.20;;;;;;5046108;28;20241;-76
2021/11/05 09:15:44;;;;;;;7.20;6.50;;;9.80;90.30;;;;;;5049384;28;20207;-78
2021/11/05 09:18:11;;;;;;;9.30;7.05;;;9.90;89.80;;;;;;5050606;28;20207;-78
2021/11/05 09:20:39;;;;;;;10.00;6.38;;;10.00;88.80;;;;;;5049899;28;20211;-77
2021/11/05 09:23:06;;;;;;;9.80;6.30;;;10.20;89.00;;;;;;5051768;28;20470;-79
2021/11/05 09:25:34;;;;;;;7.22;6.25;;;10.30;87.10;;;;;;5050539;28;20580;-77
2021/11/05 09:28:01;;;;;;;7.53;6.70;;;10.30;85.00;;;;;;5050751;28;20202;-77
2021/11/05 09:30:28;;;;;;;8.80;7.80;;;10.30;83.50;;;;;;5050835;28;20290;-78
2021/11/05 09:32:56;;;;;;;9.02;6.97;;;10.30;83.70;;;;;;5052549;28;20213;-76
2021/11/05 09:35:25;;;;;;;8.30;6.70;;;10.40;83.30;;;;;;5049100;28;20211;-78
2021/11/05 09:37:54;;;;;;;7.78;6.75;;;10.40;83.00;;;;;;5049626;28;20211;-77
2021/11/05 09:40:25;;;;;;;8.00;7.20;;;10.50;82.00;;;;;;5050787;28;20234;-78
2021/11/05 09:42:53;;;;;;;8.52;7.00;;;10.60;82.30;;;;;;5054521;28;20211;-78
2021/11/05 09:45:21;;;;;;;6.85;6.15;;;10.80;81.20;;;;;;5054302;28;20214;-77
2021/11/05 09:47:49;;;;;;;8.57;6.65;;;10.90;81.30;;;;;;5054748;28;20214;-75
2021/11/05 09:50:20;;;;;;;9.65;7.45;;;11.00;79.60;;;;;;5054609;28;20211;-76
2021/11/05 09:52:47;;;;;;;9.32;7.45;;;11.00;77.20;;;;;;5054208;28;20257;-76
2021/11/05 09:55:16;;;;;;;9.07;7.13;;;10.90;77.10;;;;;;5052668;28;20287;-77
2021/11/05 09:57:43;;;;;;;11.27;8.13;;;10.70;78.70;;;;;;5055542;28;20191;-77
2021/11/05 10:00:13;;;;;;;8.82;7.88;;;10.60;80.00;;;;;;5055347;28;20269;-77
2021/11/05 10:02:40;;;;;;;11.23;8.18;;;10.40;80.90;;;;;;5055458;28;20226;-75
2021/11/05 10:05:07;;;;;;;9.20;8.10;;;10.20;80.90;;;;;;5055764;28;20226;-76
2021/11/05 10:07:46;;;;;;;11.68;8.77;;;10.00;82.40;;;;;;5056091;28;20191;-77
2021/11/05 10:10:14;;;;;;;8.88;7.97;;;10.10;84.80;;;;;;5054664;28;20225;-78
2021/11/05 10:12:57;;;;;;;15.10;9.32;;;10.10;84.80;;;;;;5054416;28;20242;-75
2021/11/05 10:15:28;;;;;;;13.40;8.73;;;10.20;85.00;;;;;;5053428;28;20207;-77
2021/11/05 10:18:16;;;;;;;9.68;8.00;;;10.30;85.00;;;;;;5046975;28;20205;-78
2021/11/05 10:20:45;;;;;;;11.40;9.10;;;10.30;85.00;;;;;;5051765;28;20281;-77
2021/11/05 10:23:14;;;;;;;10.35;8.25;;;10.40;84.20;;;;;;5050611;28;20243;-78
2021/11/05 10:25:44;;;;;;;10.35;8.80;;;10.40;82.50;;;;;;5050200;28;20234;-78
2021/11/05 10:28:18;;;;;;;11.15;8.35;;;10.50;82.90;;;;;;5046671;28;20653;-78
2021/11/05 10:31:00;;;;;;;11.55;9.43;;;10.60;81.70;;;;;;5052112;28;20294;-78
2021/11/05 10:33:30;;;;;;;10.60;8.02;;;10.70;81.60;;;;;;5046513;28;20238;-77
2021/11/05 10:36:01;;;;;;;10.10;8.63;;;10.50;80.70;;;;;;5041045;28;20215;-78
2021/11/05 10:38:32;;;;;;;11.20;9.95;;;10.50;81.40;;;;;;5036277;28;20238;-78
2021/11/05 10:41:01;;;;;;;9.50;8.50;;;10.60;79.90;;;;;;5037788;28;20333;-79
2021/11/05 10:43:34;;;;;;;11.15;9.07;;;10.70;80.10;;;;;;5036192;28;20251;-78
2021/11/05 10:46:02;;;;;;;10.65;8.52;;;10.80;79.50;;;;;;5036664;28;20537;-79
2021/11/05 10:48:30;;;;;;;9.85;8.82;;;10.80;78.90;;;;;;5036383;28;20652;-79
2021/11/05 10:51:02;;;;;;;9.60;8.45;;;10.90;78.40;;;;;;5035309;28;20711;-77
2021/11/05 10:53:34;;;;;;;9.90;8.90;;;10.80;77.40;;;;;;5034939;28;20245;-78
2021/11/05 10:56:03;;;;;;;8.93;7.45;;;10.90;77.10;;;;;;5039123;28;20230;-78
2021/11/05 10:58:33;;;;;;;9.93;7.70;;;11.00;77.20;;;;;;5037674;28;20207;-78
2021/11/05 11:01:01;;;;;;;8.93;7.97;;;11.00;77.20;;;;;;5037136;28;20819;-78
2021/11/05 11:03:33;;;;;;;10.98;7.68;;;10.80;77.00;;;;;;5035790;28;20234;-79
2021/11/05 11:06:11;;;;;;;12.45;7.53;;;10.80;78.20;;;;;;5044122;28;20207;-79
2021/11/05 11:08:41;;;;;;;10.57;9.10;;;10.80;79.60;;;;;;5044992;28;20249;-79
2021/11/05 11:11:20;;;;;;;9.68;8.68;;;10.70;79.20;;;;;;5046861;28;20299;-78
2021/11/05 11:13:49;;;;;;;11.85;9.45;;;10.70;79.20;;;;;;5048289;28;20223;-80
2021/11/05 11:16:23;;;;;;;11.85;9.10;;;10.70;79.00;;;;;;5046080;28;20230;-79
2021/11/05 11:18:58;;;;;;;9.43;8.05;;;10.80;78.70;;;;;;5044264;28;20215;-80
2021/11/05 11:21:28;;;;;;;9.70;8.10;;;10.80;78.00;;;;;;5044011;28;20263;-80
2021/11/05 11:23:57;;;;;;;13.18;9.15;;;10.90;77.10;;;;;;5040671;28;20223;-80
2021/11/05 11:26:24;;;;;;;11.50;9.00;;;10.80;77.00;;;;;;5040118;28;20294;-80
2021/11/05 11:28:51;;;;;;;12.63;8.93;;;10.80;77.00;;;;;;5038784;28;20203;-80
2021/11/05 11:31:19;;;;;;;10.10;9.10;;;10.70;76.90;;;;;;5046303;28;20258;-79
2021/11/05 11:33:47;;;;;;;9.18;7.60;;;10.60;77.30;;;;;;5047632;28;20226;-79
2021/11/05 11:36:15;;;;;;;8.77;7.97;;;10.60;77.70;;;;;;5052785;28;20207;-78
2021/11/05 11:38:45;;;;;;;9.93;8.13;;;10.50;78.70;;;;;;5057981;28;20203;-76
2021/11/05 11:41:14;;;;;;;12.98;9.32;;;10.50;79.90;;;;;;5055484;28;20222;-78
2021/11/05 11:43:41;;;;;;;9.07;8.13;;;10.50;80.00;;;;;;5055158;28;20231;-79
2021/11/05 11:46:08;;;;;;;10.20;8.65;;;10.40;80.00;;;;;;5052001;28;20203;-77
2021/11/05 11:48:54;;;;;;;10.20;8.85;;;10.20;80.80;;;;;;5050468;28;20217;-79
2021/11/05 11:51:30;;;;;;;10.43;9.10;;;10.30;82.60;;;;;;5045182;28;20290;-81
2021/11/05 11:54:00;;;;;;;12.18;10.27;;;10.20;81.70;;;;;;5045873;28;20235;-80
2021/11/05 11:56:32;;;;;;;10.40;9.30;;;10.10;82.70;;;;;;5048284;28;20210;-79
2021/11/05 11:59:01;;;;;;;11.13;9.48;;;10.20;83.40;;;;;;5044492;28;20223;-77
2021/11/05 12:01:31;;;;;;;11.05;9.70;;;10.30;80.80;;;;;;5040998;28;20286;-78
2021/11/05 12:04:02;;;;;;;10.55;8.98;;;10.20;81.70;;;;;;5042242;28;20247;-78
2021/11/05 12:06:59;;;;;;;10.63;9.38;;;10.20;78.70;;;;;;5041811;28;20210;-81
2021/11/05 12:09:28;;;;;;;14.10;8.85;;;10.30;79.40;;;;;;5045376;28;20222;-77
2021/11/05 12:12:31;;;;;;;10.30;8.63;;;10.50;76.70;;;;;;5045400;28;20222;-79
2021/11/05 12:15:26;;;;;;;10.15;8.20;;;10.40;76.60;;;;;;5033916;28;20632;-80
2021/11/05 12:18:11;;;;;;;8.32;7.47;;;10.60;74.20;;;;;;5040245;28;20215;-81
2021/11/05 12:20:43;;;;;;;12.32;9.00;;;10.90;72.20;;;;;;5042958;28;20199;-80
2021/11/05 12:23:22;;;;;;;12.48;8.50;;;11.10;70.60;;;;;;5040380;28;20225;-80
2021/11/05 12:25:56;;;;;;;9.15;8.15;;;11.30;68.80;;;;;;5038675;28;20207;-79
2021/11/05 12:28:24;;;;;;;8.93;8.02;;;11.10;69.20;;;;;;5039373;28;20207;-81
2021/11/05 12:30:55;;;;;;;9.05;7.63;;;11.20;70.00;;;;;;5038319;28;20301;-81
2021/11/05 12:33:27;;;;;;;9.57;7.60;;;11.20;68.70;;;;;;5039548;28;20227;-80
2021/11/05 12:35:54;;;;;;;9.68;8.18;;;11.20;69.40;;;;;;5040095;28;20239;-79
2021/11/05 12:38:21;;;;;;;10.43;8.93;;;11.40;67.30;;;;;;5042543;28;20272;-78
2021/11/05 12:41:00;;;;;;;9.50;8.48;;;11.50;66.30;;;;;;5040760;28;20215;-80
2021/11/05 12:43:43;;;;;;;9.75;8.55;;;11.50;66.00;;;;;;5038593;28;20230;-79
2021/11/05 12:46:15;;;;;;;9.50;7.75;;;11.50;67.00;;;;;;5037185;28;20207;-79
2021/11/05 12:49:01;;;;;;;11.73;10.00;;;11.40;67.80;;;;;;5038662;28;20207;-79
2021/11/05 12:51:32;;;;;;;11.55;8.90;;;11.50;68.90;;;;;;5046345;28;20227;-79
2021/11/05 12:54:02;;;;;;;12.70;11.60;;;11.50;68.40;;;;;;5040476;28;20309;-78
2021/11/05 12:56:29;;;;;;;10.73;8.25;;;11.30;68.80;;;;;;5039536;28;20210;-79
2021/11/05 12:58:57;;;;;;;10.80;8.40;;;11.30;68.80;;;;;;5049052;28;20210;-78
2021/11/05 13:01:27;;;;;;;10.75;8.82;;;11.30;68.80;;;;;;5051200;28;20230;-79
2021/11/05 13:04:11;;;;;;;10.98;9.25;;;11.30;68.20;;;;;;5050952;28;20235;-79
2021/11/05 13:06:41;;;;;;;9.60;8.60;;;11.30;68.50;;;;;;5049183;28;20225;-80
2021/11/05 13:09:29;;;;;;;11.10;8.75;;;11.30;68.00;;;;;;5049349;28;20199;-79
2021/11/05 13:11:59;;;;;;;10.82;9.23;;;11.30;67.70;;;;;;5040816;28;20208;-79
2021/11/05 13:14:44;;;;;;;9.75;8.75;;;11.20;67.90;;;;;;5052794;28;20303;-79
2021/11/05 13:17:14;;;;;;;11.70;9.20;;;11.10;67.40;;;;;;5055798;28;20187;-79
2021/11/05 13:19:46;;;;;;;11.07;8.60;;;10.90;68.40;;;;;;5052369;28;20218;-79
2021/11/05 13:22:13;;;;;;;13.90;8.95;;;10.80;69.70;;;;;;5049968;28;20226;-78
2021/11/05 13:24:40;;;;;;;12.52;9.85;;;10.80;70.90;;;;;;5044553;28;20231;-79
2021/11/05 13:27:09;;;;;;;10.52;9.40;;;10.90;72.00;;;;;;5052489;28;20283;-79
2021/11/05 13:29:36;;;;;;;13.88;9.98;;;10.80;71.60;;;;;;5042610;28;20204;-79